sensor_id;sensor_type;location;lat;lon;timestamp;pressure;altitude;pressure_sealevel;temperature;humidity
37694;BME280;23531;50.122;8.644;2023-08-01T00:00:13;64050.78;;;-142.95;100.00
37694;BME280;23531;50.122;8.644;2023-08-01T00:02:15;64050.78;;;-142.95;100.00
37694;BME280;23531;50.122;8.644;2023-08-01T00:04:16;64050.78;;;-142.95;100.00
37694;BME280;23531;50.122;8.644;2023-08-01T00:06:17;64050.78;;;-142.95;100.00
37694;BME280;23531;50.122;8.644;2023-08-01T00:08:21;64050.78;;;-142.95;100.00
37694;BME280;23531;50.122;8.644;2023-08-01T00:10:22;64050.78;;;-142.95;100.00
37694;BME280;23531;50.122;8.644;2023-08-01T00:12:24;64050.78;;;-142.95;100.00
37694;BME280;23531;50.122;8.644;2023-08-01T00:14:24;64050.78;;;-142.95;100.00
37694;BME280;23531;50.122;8.644;2023-08-01T00:16:25;64050.78;;;-142.95;100.00
37694;BME280;23531;50.122;8.644;2023-08-01T00:18:27;64050.78;;;-142.95;100.00
37694;BME280;23531;50.122;8.644;2023-08-01T00:20:28;64050.78;;;-142.95;100.00
37694;BME280;23531;50.122;8.644;2023-08-01T00:22:29;64050.78;;;-142.95;100.00
37694;BME280;23531;50.122;8.644;2023-08-01T00:24:31;64050.78;;;-142.95;100.00
37694;BME280;23531;50.122;8.644;2023-08-01T00:26:32;64050.78;;;-142.95;100.00
37694;BME280;23531;50.122;8.644;2023-08-01T00:28:33;64050.78;;;-142.95;100.00
37694;BME280;23531;50.122;8.644;2023-08-01T00:30:34;64050.78;;;-142.95;100.00
37694;BME280;23531;50.122;8.644;2023-08-01T00:32:36;64050.78;;;-142.95;100.00
37694;BME280;23531;50.122;8.644;2023-08-01T00:34:36;64050.78;;;-142.95;100.00
37694;BME280;23531;50.122;8.644;2023-08-01T00:36:38;64050.78;;;-142.95;100.00
37694;BME280;23531;50.122;8.644;2023-08-01T00:38:39;64050.78;;;-142.95;100.00
37694;BME280;23531;50.122;8.644;2023-08-01T00:40:44;64050.78;;;-142.95;100.00
37694;BME280;23531;50.122;8.644;2023-08-01T00:42:45;64050.78;;;-142.95;100.00
37694;BME280;23531;50.122;8.644;2023-08-01T00:44:46;64050.78;;;-142.95;100.00
37694;BME280;23531;50.122;8.644;2023-08-01T00:46:49;64050.78;;;-142.95;100.00
37694;BME280;23531;50.122;8.644;2023-08-01T00:48:50;64050.78;;;-142.95;100.00
37694;BME280;23531;50.122;8.644;2023-08-01T00:50:51;64050.78;;;-142.95;100.00
37694;BME280;23531;50.122;8.644;2023-08-01T00:52:53;64050.78;;;-142.95;100.00
37694;BME280;23531;50.122;8.644;2023-08-01T00:54:54;64050.78;;;-142.95;100.00
37694;BME280;23531;50.122;8.644;2023-08-01T00:56:57;64050.78;;;-142.95;100.00
37694;BME280;23531;50.122;8.644;2023-08-01T00:58:58;64050.78;;;-142.95;100.00
37694;BME280;23531;50.122;8.644;2023-08-01T01:00:59;64050.78;;;-142.95;100.00
37694;BME280;23531;50.122;8.644;2023-08-01T01:03:01;64050.78;;;-142.95;100.00
37694;BME280;23531;50.122;8.644;2023-08-01T01:05:01;64050.78;;;-142.95;100.00
37694;BME280;23531;50.122;8.644;2023-08-01T01:07:03;64050.78;;;-142.95;100.00
37694;BME280;23531;50.122;8.644;2023-08-01T01:09:14;64050.78;;;-142.95;100.00
37694;BME280;23531;50.122;8.644;2023-08-01T01:11:15;64050.78;;;-142.95;100.00
37694;BME280;23531;50.122;8.644;2023-08-01T01:13:18;64050.78;;;-142.95;100.00
37694;BME280;23531;50.122;8.644;2023-08-01T01:15:19;64050.78;;;-142.95;100.00
37694;BME280;23531;50.122;8.644;2023-08-01T01:17:20;64050.78;;;-142.95;100.00
37694;BME280;23531;50.122;8.644;2023-08-01T01:19:21;64050.78;;;-142.95;100.00
37694;BME280;23531;50.122;8.644;2023-08-01T01:21:24;64050.78;;;-142.95;100.00
37694;BME280;23531;50.122;8.644;2023-08-01T01:23:25;64050.78;;;-142.95;100.00
37694;BME280;23531;50.122;8.644;2023-08-01T01:25:28;64050.78;;;-142.95;100.00
37694;BME280;23531;50.122;8.644;2023-08-01T01:27:28;64050.78;;;-142.95;100.00
37694;BME280;23531;50.122;8.644;2023-08-01T01:29:31;64050.78;;;-142.95;100.00
37694;BME280;23531;50.122;8.644;2023-08-01T01:31:32;64050.78;;;-142.95;100.00
37694;BME280;23531;50.122;8.644;2023-08-01T01:33:34;64050.78;;;-142.95;100.00
37694;BME280;23531;50.122;8.644;2023-08-01T01:35:36;64050.78;;;-142.95;100.00
37694;BME280;23531;50.122;8.644;2023-08-01T01:37:38;64050.78;;;-142.95;100.00
37694;BME280;23531;50.122;8.644;2023-08-01T01:39:40;64050.78;;;-142.95;100.00
37694;BME280;23531;50.122;8.644;2023-08-01T01:41:41;64050.78;;;-142.95;100.00
37694;BME280;23531;50.122;8.644;2023-08-01T01:43:42;64050.78;;;-142.95;100.00
37694;BME280;23531;50.122;8.644;2023-08-01T01:45:44;64050.78;;;-142.95;100.00
37694;BME280;23531;50.122;8.644;2023-08-01T01:47:45;64050.78;;;-142.95;100.00
37694;BME280;23531;50.122;8.644;2023-08-01T01:49:47;64050.78;;;-142.95;100.00
37694;BME280;23531;50.122;8.644;2023-08-01T01:51:48;64050.78;;;-142.95;100.00
37694;BME280;23531;50.122;8.644;2023-08-01T01:53:50;64050.78;;;-142.95;100.00
37694;BME280;23531;50.122;8.644;2023-08-01T01:55:53;64050.78;;;-142.95;100.00
37694;BME280;23531;50.122;8.644;2023-08-01T01:57:53;64050.78;;;-142.95;100.00
37694;BME280;23531;50.122;8.644;2023-08-01T01:59:54;64050.78;;;-142.95;100.00
37694;BME280;23531;50.122;8.644;2023-08-01T02:01:55;64050.78;;;-142.95;100.00
37694;BME280;23531;50.122;8.644;2023-08-01T02:03:56;64050.78;;;-142.95;100.00
37694;BME280;23531;50.122;8.644;2023-08-01T02:05:57;64050.78;;;-142.95;100.00
37694;BME280;23531;50.122;8.644;2023-08-01T02:07:58;64050.78;;;-142.95;100.00
37694;BME280;23531;50.122;8.644;2023-08-01T02:10:01;64050.78;;;-142.95;100.00
37694;BME280;23531;50.122;8.644;2023-08-01T02:12:03;64050.78;;;-142.95;100.00
37694;BME280;23531;50.122;8.644;2023-08-01T02:14:04;64050.78;;;-142.95;100.00
37694;BME280;23531;50.122;8.644;2023-08-01T02:16:06;64050.78;;;-142.95;100.00
37694;BME280;23531;50.122;8.644;2023-08-01T02:18:06;64050.78;;;-142.95;100.00
37694;BME280;23531;50.122;8.644;2023-08-01T02:20:08;64050.78;;;-142.95;100.00
37694;BME280;23531;50.122;8.644;2023-08-01T02:22:08;64050.78;;;-142.95;100.00
37694;BME280;23531;50.122;8.644;2023-08-01T02:24:09;64050.78;;;-142.95;100.00
37694;BME280;23531;50.122;8.644;2023-08-01T02:26:12;64050.78;;;-142.95;100.00
37694;BME280;23531;50.122;8.644;2023-08-01T02:28:14;64050.78;;;-142.95;100.00
37694;BME280;23531;50.122;8.644;2023-08-01T02:30:15;64050.78;;;-142.95;100.00
37694;BME280;23531;50.122;8.644;2023-08-01T02:32:17;64050.78;;;-142.95;100.00
37694;BME280;23531;50.122;8.644;2023-08-01T02:34:18;64050.78;;;-142.95;100.00
37694;BME280;23531;50.122;8.644;2023-08-01T02:36:19;64050.78;;;-142.95;100.00
37694;BME280;23531;50.122;8.644;2023-08-01T02:38:21;64050.78;;;-142.95;100.00
37694;BME280;23531;50.122;8.644;2023-08-01T02:40:22;64050.78;;;-142.95;100.00
37694;BME280;23531;50.122;8.644;2023-08-01T02:42:24;64050.78;;;-142.95;100.00
37694;BME280;23531;50.122;8.644;2023-08-01T02:44:26;64050.78;;;-142.95;100.00
37694;BME280;23531;50.122;8.644;2023-08-01T02:46:27;64050.78;;;-142.95;100.00
37694;BME280;23531;50.122;8.644;2023-08-01T02:48:29;64050.78;;;-142.95;100.00
37694;BME280;23531;50.122;8.644;2023-08-01T02:50:31;64050.78;;;-142.95;100.00
37694;BME280;23531;50.122;8.644;2023-08-01T02:52:32;64050.78;;;-142.95;100.00
37694;BME280;23531;50.122;8.644;2023-08-01T02:54:33;64050.78;;;-142.95;100.00
37694;BME280;23531;50.122;8.644;2023-08-01T02:56:34;64050.78;;;-142.95;100.00
37694;BME280;23531;50.122;8.644;2023-08-01T02:58:42;64050.78;;;-142.95;100.00
37694;BME280;23531;50.122;8.644;2023-08-01T03:00:43;64050.78;;;-142.95;100.00
37694;BME280;23531;50.122;8.644;2023-08-01T03:02:44;64050.78;;;-142.95;100.00
37694;BME280;23531;50.122;8.644;2023-08-01T03:04:46;64050.78;;;-142.95;100.00
37694;BME280;23531;50.122;8.644;2023-08-01T03:06:47;64050.78;;;-142.95;100.00
37694;BME280;23531;50.122;8.644;2023-08-01T03:08:48;64050.78;;;-142.95;100.00
37694;BME280;23531;50.122;8.644;2023-08-01T03:10:49;64050.78;;;-142.95;100.00
37694;BME280;23531;50.122;8.644;2023-08-01T03:12:50;64050.78;;;-142.95;100.00
37694;BME280;23531;50.122;8.644;2023-08-01T03:14:55;64050.78;;;-142.95;100.00
37694;BME280;23531;50.122;8.644;2023-08-01T03:16:56;64050.78;;;-142.95;100.00
37694;BME280;23531;50.122;8.644;2023-08-01T03:18:57;64050.78;;;-142.95;100.00
37694;BME280;23531;50.122;8.644;2023-08-01T03:21:00;64050.78;;;-142.95;100.00
37694;BME280;23531;50.122;8.644;2023-08-01T03:23:03;64050.78;;;-142.95;100.00
37694;BME280;23531;50.122;8.644;2023-08-01T03:25:05;64050.78;;;-142.95;100.00
37694;BME280;23531;50.122;8.644;2023-08-01T03:27:07;64050.78;;;-142.95;100.00
37694;BME280;23531;50.122;8.644;2023-08-01T03:29:08;64050.78;;;-142.95;100.00
37694;BME280;23531;50.122;8.644;2023-08-01T03:31:11;64050.78;;;-142.95;100.00
37694;BME280;23531;50.122;8.644;2023-08-01T03:33:12;64050.78;;;-142.95;100.00
37694;BME280;23531;50.122;8.644;2023-08-01T03:35:14;64050.78;;;-142.95;100.00
37694;BME280;23531;50.122;8.644;2023-08-01T03:37:15;64050.78;;;-142.95;100.00
37694;BME280;23531;50.122;8.644;2023-08-01T03:39:16;64050.78;;;-142.95;100.00
37694;BME280;23531;50.122;8.644;2023-08-01T03:41:18;64050.78;;;-142.95;100.00
37694;BME280;23531;50.122;8.644;2023-08-01T03:43:19;64050.78;;;-142.95;100.00
37694;BME280;23531;50.122;8.644;2023-08-01T03:45:23;64050.78;;;-142.95;100.00
37694;BME280;23531;50.122;8.644;2023-08-01T03:47:26;64050.78;;;-142.95;100.00
37694;BME280;23531;50.122;8.644;2023-08-01T03:49:27;64050.78;;;-142.95;100.00
37694;BME280;23531;50.122;8.644;2023-08-01T03:51:27;64050.78;;;-142.95;100.00
37694;BME280;23531;50.122;8.644;2023-08-01T03:53:29;64050.78;;;-142.95;100.00
37694;BME280;23531;50.122;8.644;2023-08-01T03:55:30;64050.78;;;-142.95;100.00
37694;BME280;23531;50.122;8.644;2023-08-01T03:57:31;64050.78;;;-142.95;100.00
37694;BME280;23531;50.122;8.644;2023-08-01T03:59:33;64050.78;;;-142.95;100.00
37694;BME280;23531;50.122;8.644;2023-08-01T04:01:35;64050.78;;;-142.95;100.00
37694;BME280;23531;50.122;8.644;2023-08-01T04:03:36;64050.78;;;-142.95;100.00
37694;BME280;23531;50.122;8.644;2023-08-01T04:05:38;64050.78;;;-142.95;100.00
37694;BME280;23531;50.122;8.644;2023-08-01T04:07:39;64050.78;;;-142.95;100.00
37694;BME280;23531;50.122;8.644;2023-08-01T04:09:40;64050.78;;;-142.95;100.00
37694;BME280;23531;50.122;8.644;2023-08-01T04:11:41;64050.78;;;-142.95;100.00
37694;BME280;23531;50.122;8.644;2023-08-01T04:13:43;64050.78;;;-142.95;100.00
37694;BME280;23531;50.122;8.644;2023-08-01T04:15:44;64050.78;;;-142.95;100.00
37694;BME280;23531;50.122;8.644;2023-08-01T04:17:45;64050.78;;;-142.95;100.00
37694;BME280;23531;50.122;8.644;2023-08-01T04:19:48;64050.78;;;-142.95;100.00
37694;BME280;23531;50.122;8.644;2023-08-01T04:21:49;64050.78;;;-142.95;100.00
37694;BME280;23531;50.122;8.644;2023-08-01T04:23:50;64050.78;;;-142.95;100.00
37694;BME280;23531;50.122;8.644;2023-08-01T04:25:52;64050.78;;;-142.95;100.00
37694;BME280;23531;50.122;8.644;2023-08-01T04:27:53;64050.78;;;-142.95;100.00
37694;BME280;23531;50.122;8.644;2023-08-01T04:29:55;64050.78;;;-142.95;100.00
37694;BME280;23531;50.122;8.644;2023-08-01T04:31:56;64050.78;;;-142.95;100.00
37694;BME280;23531;50.122;8.644;2023-08-01T04:33:58;64050.78;;;-142.95;100.00
37694;BME280;23531;50.122;8.644;2023-08-01T04:36:00;64050.78;;;-142.95;100.00
37694;BME280;23531;50.122;8.644;2023-08-01T04:38:01;64050.78;;;-142.95;100.00
37694;BME280;23531;50.122;8.644;2023-08-01T04:40:03;64050.78;;;-142.95;100.00
37694;BME280;23531;50.122;8.644;2023-08-01T04:42:05;64050.78;;;-142.95;100.00
37694;BME280;23531;50.122;8.644;2023-08-01T04:44:06;64050.78;;;-142.95;100.00
37694;BME280;23531;50.122;8.644;2023-08-01T04:46:07;64050.78;;;-142.95;100.00
37694;BME280;23531;50.122;8.644;2023-08-01T04:48:09;64050.78;;;-142.95;100.00
37694;BME280;23531;50.122;8.644;2023-08-01T04:50:10;64050.78;;;-142.95;100.00
37694;BME280;23531;50.122;8.644;2023-08-01T04:52:12;64050.78;;;-142.95;100.00
37694;BME280;23531;50.122;8.644;2023-08-01T04:54:13;64050.78;;;-142.95;100.00
37694;BME280;23531;50.122;8.644;2023-08-01T04:56:14;64050.78;;;-142.95;100.00
37694;BME280;23531;50.122;8.644;2023-08-01T04:58:15;64050.78;;;-142.95;100.00
37694;BME280;23531;50.122;8.644;2023-08-01T05:00:17;64050.78;;;-142.95;100.00
37694;BME280;23531;50.122;8.644;2023-08-01T05:02:18;64050.78;;;-142.95;100.00
37694;BME280;23531;50.122;8.644;2023-08-01T05:04:19;64050.78;;;-142.95;100.00
37694;BME280;23531;50.122;8.644;2023-08-01T05:06:20;64050.78;;;-142.95;100.00
37694;BME280;23531;50.122;8.644;2023-08-01T05:08:23;64050.78;;;-142.95;100.00
37694;BME280;23531;50.122;8.644;2023-08-01T05:10:24;64050.78;;;-142.95;100.00
37694;BME280;23531;50.122;8.644;2023-08-01T05:12:25;64050.78;;;-142.95;100.00
37694;BME280;23531;50.122;8.644;2023-08-01T05:14:27;64050.78;;;-142.95;100.00
37694;BME280;23531;50.122;8.644;2023-08-01T05:16:28;64050.78;;;-142.95;100.00
37694;BME280;23531;50.122;8.644;2023-08-01T05:18:29;64050.78;;;-142.95;100.00
37694;BME280;23531;50.122;8.644;2023-08-01T05:20:30;64050.78;;;-142.95;100.00
37694;BME280;23531;50.122;8.644;2023-08-01T05:22:33;64050.78;;;-142.95;100.00
37694;BME280;23531;50.122;8.644;2023-08-01T05:24:36;64050.78;;;-142.95;100.00
37694;BME280;23531;50.122;8.644;2023-08-01T05:26:37;64050.78;;;-142.95;100.00
37694;BME280;23531;50.122;8.644;2023-08-01T05:28:38;64050.78;;;-142.95;100.00
37694;BME280;23531;50.122;8.644;2023-08-01T05:30:39;64050.78;;;-142.95;100.00
37694;BME280;23531;50.122;8.644;2023-08-01T05:32:40;64050.78;;;-142.95;100.00
37694;BME280;23531;50.122;8.644;2023-08-01T05:34:43;64050.78;;;-142.95;100.00
37694;BME280;23531;50.122;8.644;2023-08-01T05:36:44;64050.78;;;-142.95;100.00
37694;BME280;23531;50.122;8.644;2023-08-01T05:38:46;64050.78;;;-142.95;100.00
37694;BME280;23531;50.122;8.644;2023-08-01T05:40:48;64050.78;;;-142.95;100.00
37694;BME280;23531;50.122;8.644;2023-08-01T05:42:50;64050.78;;;-142.95;100.00
37694;BME280;23531;50.122;8.644;2023-08-01T05:44:51;64050.78;;;-142.95;100.00
37694;BME280;23531;50.122;8.644;2023-08-01T05:46:52;64050.78;;;-142.95;100.00
37694;BME280;23531;50.122;8.644;2023-08-01T05:48:53;64050.78;;;-142.95;100.00
37694;BME280;23531;50.122;8.644;2023-08-01T05:50:55;64050.78;;;-142.95;100.00
37694;BME280;23531;50.122;8.644;2023-08-01T05:52:56;64050.78;;;-142.95;100.00
37694;BME280;23531;50.122;8.644;2023-08-01T05:54:56;64050.78;;;-142.95;100.00
37694;BME280;23531;50.122;8.644;2023-08-01T05:56:59;64050.78;;;-142.95;100.00
37694;BME280;23531;50.122;8.644;2023-08-01T05:59:00;64050.78;;;-142.95;100.00
37694;BME280;23531;50.122;8.644;2023-08-01T06:01:01;64050.78;;;-142.95;100.00
37694;BME280;23531;50.122;8.644;2023-08-01T06:03:02;64050.78;;;-142.95;100.00
37694;BME280;23531;50.122;8.644;2023-08-01T06:05:03;64050.78;;;-142.95;100.00
37694;BME280;23531;50.122;8.644;2023-08-01T06:07:05;64050.78;;;-142.95;100.00
37694;BME280;23531;50.122;8.644;2023-08-01T06:09:06;64050.78;;;-142.95;100.00
37694;BME280;23531;50.122;8.644;2023-08-01T06:11:07;64050.78;;;-142.95;100.00
37694;BME280;23531;50.122;8.644;2023-08-01T06:13:10;64050.78;;;-142.95;100.00
37694;BME280;23531;50.122;8.644;2023-08-01T06:15:11;64050.78;;;-142.95;100.00
37694;BME280;23531;50.122;8.644;2023-08-01T06:17:12;64050.78;;;-142.95;100.00
37694;BME280;23531;50.122;8.644;2023-08-01T06:19:13;64050.78;;;-142.95;100.00
37694;BME280;23531;50.122;8.644;2023-08-01T06:21:14;64050.78;;;-142.95;100.00
37694;BME280;23531;50.122;8.644;2023-08-01T06:23:16;64050.78;;;-142.95;100.00
37694;BME280;23531;50.122;8.644;2023-08-01T06:25:17;64050.78;;;-142.95;100.00
37694;BME280;23531;50.122;8.644;2023-08-01T06:27:18;64050.78;;;-142.95;100.00
37694;BME280;23531;50.122;8.644;2023-08-01T06:29:21;64050.78;;;-142.95;100.00
37694;BME280;23531;50.122;8.644;2023-08-01T06:31:22;64050.78;;;-142.95;100.00
37694;BME280;23531;50.122;8.644;2023-08-01T06:33:23;64050.78;;;-142.95;100.00
37694;BME280;23531;50.122;8.644;2023-08-01T06:35:24;64050.78;;;-142.95;100.00
37694;BME280;23531;50.122;8.644;2023-08-01T06:37:26;64050.78;;;-142.95;100.00
37694;BME280;23531;50.122;8.644;2023-08-01T06:39:27;64050.78;;;-142.95;100.00
37694;BME280;23531;50.122;8.644;2023-08-01T06:41:28;64050.78;;;-142.95;100.00
37694;BME280;23531;50.122;8.644;2023-08-01T06:43:30;64050.78;;;-142.95;100.00
37694;BME280;23531;50.122;8.644;2023-08-01T06:45:32;64050.78;;;-142.95;100.00
37694;BME280;23531;50.122;8.644;2023-08-01T06:47:34;64050.78;;;-142.95;100.00
37694;BME280;23531;50.122;8.644;2023-08-01T06:49:35;64050.78;;;-142.95;100.00
37694;BME280;23531;50.122;8.644;2023-08-01T06:51:36;64050.78;;;-142.95;100.00
37694;BME280;23531;50.122;8.644;2023-08-01T06:53:37;64050.78;;;-142.95;100.00
37694;BME280;23531;50.122;8.644;2023-08-01T06:55:39;64050.78;;;-142.95;100.00
37694;BME280;23531;50.122;8.644;2023-08-01T06:57:40;64050.78;;;-142.95;100.00
37694;BME280;23531;50.122;8.644;2023-08-01T06:59:41;64050.78;;;-142.95;100.00
37694;BME280;23531;50.122;8.644;2023-08-01T07:01:44;64050.78;;;-142.95;100.00
37694;BME280;23531;50.122;8.644;2023-08-01T07:03:45;64050.78;;;-142.95;100.00
37694;BME280;23531;50.122;8.644;2023-08-01T07:05:46;64050.78;;;-142.95;100.00
37694;BME280;23531;50.122;8.644;2023-08-01T07:07:48;64050.78;;;-142.95;100.00
37694;BME280;23531;50.122;8.644;2023-08-01T07:09:49;64050.78;;;-142.95;100.00
37694;BME280;23531;50.122;8.644;2023-08-01T07:11:51;64050.78;;;-142.95;100.00
37694;BME280;23531;50.122;8.644;2023-08-01T07:13:52;64050.78;;;-142.95;100.00
37694;BME280;23531;50.122;8.644;2023-08-01T07:15:53;64050.78;;;-142.95;100.00
37694;BME280;23531;50.122;8.644;2023-08-01T07:17:56;64050.78;;;-142.95;100.00
37694;BME280;23531;50.122;8.644;2023-08-01T07:19:57;64050.78;;;-142.95;100.00
37694;BME280;23531;50.122;8.644;2023-08-01T07:21:57;64050.78;;;-142.95;100.00
37694;BME280;23531;50.122;8.644;2023-08-01T07:23:59;64050.78;;;-142.95;100.00
37694;BME280;23531;50.122;8.644;2023-08-01T07:26:00;64050.78;;;-142.95;100.00
37694;BME280;23531;50.122;8.644;2023-08-01T07:28:01;64050.78;;;-142.95;100.00
37694;BME280;23531;50.122;8.644;2023-08-01T07:30:04;64050.78;;;-142.95;100.00
37694;BME280;23531;50.122;8.644;2023-08-01T07:32:05;64050.78;;;-142.95;100.00
37694;BME280;23531;50.122;8.644;2023-08-01T07:34:08;64050.78;;;-142.95;100.00
37694;BME280;23531;50.122;8.644;2023-08-01T07:36:09;64050.78;;;-142.95;100.00
37694;BME280;23531;50.122;8.644;2023-08-01T07:38:10;64050.78;;;-142.95;100.00
37694;BME280;23531;50.122;8.644;2023-08-01T07:40:12;64050.78;;;-142.95;100.00
37694;BME280;23531;50.122;8.644;2023-08-01T07:42:13;64050.78;;;-142.95;100.00
37694;BME280;23531;50.122;8.644;2023-08-01T07:44:14;64050.78;;;-142.95;100.00
37694;BME280;23531;50.122;8.644;2023-08-01T07:46:15;64050.78;;;-142.95;100.00
37694;BME280;23531;50.122;8.644;2023-08-01T07:48:17;64050.78;;;-142.95;100.00
37694;BME280;23531;50.122;8.644;2023-08-01T07:50:19;64050.78;;;-142.95;100.00
37694;BME280;23531;50.122;8.644;2023-08-01T07:52:21;64050.78;;;-142.95;100.00
37694;BME280;23531;50.122;8.644;2023-08-01T07:54:23;64050.78;;;-142.95;100.00
37694;BME280;23531;50.122;8.644;2023-08-01T07:56:24;64050.78;;;-142.95;100.00
37694;BME280;23531;50.122;8.644;2023-08-01T07:58:26;64050.78;;;-142.95;100.00
37694;BME280;23531;50.122;8.644;2023-08-01T08:00:27;64050.78;;;-142.95;100.00
37694;BME280;23531;50.122;8.644;2023-08-01T08:02:28;64050.78;;;-142.95;100.00
37694;BME280;23531;50.122;8.644;2023-08-01T08:04:29;64050.78;;;-142.95;100.00
37694;BME280;23531;50.122;8.644;2023-08-01T08:06:32;64050.78;;;-142.95;100.00
37694;BME280;23531;50.122;8.644;2023-08-01T08:08:33;64050.78;;;-142.95;100.00
37694;BME280;23531;50.122;8.644;2023-08-01T08:10:36;64050.78;;;-142.95;100.00
37694;BME280;23531;50.122;8.644;2023-08-01T08:12:37;64050.78;;;-142.95;100.00
37694;BME280;23531;50.122;8.644;2023-08-01T08:14:39;64050.78;;;-142.95;100.00
37694;BME280;23531;50.122;8.644;2023-08-01T08:16:40;64050.78;;;-142.95;100.00
37694;BME280;23531;50.122;8.644;2023-08-01T08:18:41;64050.78;;;-142.95;100.00
37694;BME280;23531;50.122;8.644;2023-08-01T08:20:43;64050.78;;;-142.95;100.00
37694;BME280;23531;50.122;8.644;2023-08-01T08:22:46;64050.78;;;-142.95;100.00
37694;BME280;23531;50.122;8.644;2023-08-01T08:24:47;64050.78;;;-142.95;100.00
37694;BME280;23531;50.122;8.644;2023-08-01T08:26:48;64050.78;;;-142.95;100.00
37694;BME280;23531;50.122;8.644;2023-08-01T08:28:49;64050.78;;;-142.95;100.00
37694;BME280;23531;50.122;8.644;2023-08-01T08:30:52;64050.78;;;-142.95;100.00
37694;BME280;23531;50.122;8.644;2023-08-01T08:32:53;64050.78;;;-142.95;100.00
37694;BME280;23531;50.122;8.644;2023-08-01T08:34:55;64050.78;;;-142.95;100.00
37694;BME280;23531;50.122;8.644;2023-08-01T08:36:56;64050.78;;;-142.95;100.00
37694;BME280;23531;50.122;8.644;2023-08-01T08:38:58;64050.78;;;-142.95;100.00
37694;BME280;23531;50.122;8.644;2023-08-01T08:41:07;64050.78;;;-142.95;100.00
37694;BME280;23531;50.122;8.644;2023-08-01T08:43:09;64050.78;;;-142.95;100.00
37694;BME280;23531;50.122;8.644;2023-08-01T08:45:11;64050.78;;;-142.95;100.00
37694;BME280;23531;50.122;8.644;2023-08-01T08:47:12;64050.78;;;-142.95;100.00
37694;BME280;23531;50.122;8.644;2023-08-01T08:49:17;64050.78;;;-142.95;100.00
37694;BME280;23531;50.122;8.644;2023-08-01T08:51:20;64050.78;;;-142.95;100.00
37694;BME280;23531;50.122;8.644;2023-08-01T08:53:22;64050.78;;;-142.95;100.00
37694;BME280;23531;50.122;8.644;2023-08-01T08:55:24;64050.78;;;-142.95;100.00
37694;BME280;23531;50.122;8.644;2023-08-01T08:57:27;64050.78;;;-142.95;100.00
37694;BME280;23531;50.122;8.644;2023-08-01T08:59:29;64050.78;;;-142.95;100.00
37694;BME280;23531;50.122;8.644;2023-08-01T09:01:31;64050.78;;;-142.95;100.00
37694;BME280;23531;50.122;8.644;2023-08-01T09:03:32;64050.78;;;-142.95;100.00
37694;BME280;23531;50.122;8.644;2023-08-01T09:05:34;64050.78;;;-142.95;100.00
37694;BME280;23531;50.122;8.644;2023-08-01T09:07:35;64050.78;;;-142.95;100.00
37694;BME280;23531;50.122;8.644;2023-08-01T09:09:39;64050.78;;;-142.95;100.00
37694;BME280;23531;50.122;8.644;2023-08-01T09:11:44;64050.78;;;-142.95;100.00
37694;BME280;23531;50.122;8.644;2023-08-01T09:13:45;64050.78;;;-142.95;100.00
37694;BME280;23531;50.122;8.644;2023-08-01T09:15:48;64050.78;;;-142.95;100.00
37694;BME280;23531;50.122;8.644;2023-08-01T09:17:51;64050.78;;;-142.95;100.00
37694;BME280;23531;50.122;8.644;2023-08-01T09:19:54;64050.78;;;-142.95;100.00
37694;BME280;23531;50.122;8.644;2023-08-01T09:21:56;64050.78;;;-142.95;100.00
37694;BME280;23531;50.122;8.644;2023-08-01T09:23:57;64050.78;;;-142.95;100.00
37694;BME280;23531;50.122;8.644;2023-08-01T09:25:59;64050.78;;;-142.95;100.00
37694;BME280;23531;50.122;8.644;2023-08-01T09:28:02;64050.78;;;-142.95;100.00
37694;BME280;23531;50.122;8.644;2023-08-01T09:30:07;64050.78;;;-142.95;100.00
37694;BME280;23531;50.122;8.644;2023-08-01T09:32:12;64050.78;;;-142.95;100.00
37694;BME280;23531;50.122;8.644;2023-08-01T09:34:20;64050.78;;;-142.95;100.00
37694;BME280;23531;50.122;8.644;2023-08-01T09:36:21;64050.78;;;-142.95;100.00
37694;BME280;23531;50.122;8.644;2023-08-01T09:38:23;64050.78;;;-142.95;100.00
37694;BME280;23531;50.122;8.644;2023-08-01T09:40:25;64050.78;;;-142.95;100.00
37694;BME280;23531;50.122;8.644;2023-08-01T09:42:39;64050.78;;;-142.95;100.00
37694;BME280;23531;50.122;8.644;2023-08-01T09:44:44;64050.78;;;-142.95;100.00
37694;BME280;23531;50.122;8.644;2023-08-01T09:46:54;64050.78;;;-142.95;100.00
37694;BME280;23531;50.122;8.644;2023-08-01T09:49:05;64050.78;;;-142.95;100.00
37694;BME280;23531;50.122;8.644;2023-08-01T09:51:18;99059.59;;;21.53;67.28
37694;BME280;23531;50.122;8.644;2023-08-01T09:53:19;99057.00;;;21.48;64.30
37694;BME280;23531;50.122;8.644;2023-08-01T09:55:20;99058.69;;;21.35;64.13
37694;BME280;23531;50.122;8.644;2023-08-01T09:57:25;99055.31;;;21.30;63.20
37694;BME280;23531;50.122;8.644;2023-08-01T09:59:29;99058.47;;;21.23;65.11
37694;BME280;23531;50.122;8.644;2023-08-01T10:01:30;99051.81;;;21.16;64.73
37694;BME280;23531;50.122;8.644;2023-08-01T10:03:32;99045.84;;;21.14;65.76
37694;BME280;23531;50.122;8.644;2023-08-01T10:05:33;99055.97;;;21.13;64.05
37694;BME280;23531;50.122;8.644;2023-08-01T10:07:37;99061.84;;;21.20;64.35
37694;BME280;23531;50.122;8.644;2023-08-01T10:09:39;99067.19;;;21.25;64.98
37694;BME280;23531;50.122;8.644;2023-08-01T10:11:41;99062.00;;;21.24;65.78
37694;BME280;23531;50.122;8.644;2023-08-01T10:13:44;99059.44;;;21.19;63.81
37694;BME280;23531;50.122;8.644;2023-08-01T10:15:45;99060.81;;;21.16;65.58
37694;BME280;23531;50.122;8.644;2023-08-01T10:17:46;99060.31;;;21.14;63.54
37694;BME280;23531;50.122;8.644;2023-08-01T10:19:49;99064.13;;;21.05;62.75